createdAt,value
2019-02-28T00:00:48.109Z,22.70
2019-02-28T00:01:48.115Z,24.50
2019-02-28T00:02:48.056Z,24.20
2019-02-28T00:03:48.035Z,24.50
2019-02-28T00:04:48.014Z,23.10
2019-02-28T00:05:47.991Z,23.80
2019-02-28T00:06:47.978Z,24.10
2019-02-28T00:07:49.689Z,24.40
2019-02-28T00:08:47.926Z,23.70
2019-02-28T00:09:47.903Z,23.60
2019-02-28T00:10:47.892Z,24.00
2019-02-28T00:11:47.860Z,24.90
2019-02-28T00:12:48.561Z,23.50
2019-02-28T00:13:47.826Z,24.20
2019-02-28T00:14:47.795Z,24.40
2019-02-28T00:15:47.772Z,24.10
2019-02-28T00:16:47.752Z,24.40
2019-02-28T00:17:47.734Z,23.80
2019-02-28T00:18:49.972Z,23.90
2019-02-28T00:19:47.693Z,25.20
2019-02-28T00:20:47.664Z,25.90
2019-02-28T00:21:47.642Z,24.60
2019-02-28T00:22:49.227Z,25.60
2019-02-28T00:23:47.602Z,25.30
2019-02-28T00:24:47.589Z,24.70
2019-02-28T00:25:47.553Z,25.70
2019-02-28T00:26:47.947Z,25.40
2019-02-28T00:27:47.513Z,25.60
2019-02-28T00:28:47.493Z,25.30
2019-02-28T00:29:47.466Z,25.60
2019-02-28T00:30:47.455Z,26.70
2019-02-28T00:31:50.174Z,26.30
2019-02-28T00:32:47.454Z,27.10
2019-02-28T00:33:47.378Z,26.00
2019-02-28T00:34:47.355Z,27.00
2019-02-28T00:35:47.338Z,26.70
2019-02-28T00:36:47.317Z,26.20
2019-02-28T00:37:47.289Z,26.70
2019-02-28T00:38:47.276Z,26.90
2019-02-28T00:39:47.260Z,26.30
2019-02-28T00:40:47.229Z,24.70
2019-02-28T00:41:47.203Z,26.20
2019-02-28T00:42:48.083Z,25.20
2019-02-28T00:43:47.158Z,26.10
2019-02-28T00:44:47.138Z,26.80
2019-02-28T00:45:47.114Z,26.40
2019-02-28T00:46:47.091Z,25.50
2019-02-28T00:47:47.682Z,26.00
2019-02-28T00:48:47.061Z,26.40
2019-02-28T00:49:47.022Z,25.30
2019-02-28T00:50:47.002Z,25.30
2019-02-28T00:51:46.982Z,27.10
2019-02-28T00:52:46.959Z,26.30
2019-02-28T00:53:46.936Z,25.70
2019-02-28T00:54:46.918Z,25.70
2019-02-28T00:55:47.065Z,25.60
2019-02-28T00:56:51.625Z,25.70
2019-02-28T00:57:46.848Z,25.80
2019-02-28T00:58:46.833Z,25.30
2019-02-28T00:59:46.814Z,26.40
2019-02-28T01:00:46.780Z,25.60
2019-02-28T01:01:46.863Z,26.40
2019-02-28T01:02:52.135Z,26.30
2019-02-28T01:03:46.712Z,26.10
2019-02-28T01:04:46.691Z,25.80
2019-02-28T01:05:46.670Z,26.30
2019-02-28T01:06:46.650Z,26.10
2019-02-28T01:07:48.298Z,26.20
2019-02-28T01:08:46.602Z,26.70
2019-02-28T01:09:46.588Z,26.00
2019-02-28T01:10:46.567Z,26.90
2019-02-28T01:11:46.534Z,26.20
2019-02-28T01:12:46.515Z,25.80
2019-02-28T01:13:46.490Z,25.60
2019-02-28T01:14:46.468Z,26.30
2019-02-28T01:15:46.470Z,25.20
2019-02-28T01:16:46.423Z,27.70
2019-02-28T01:17:46.409Z,27.30
2019-02-28T01:18:46.381Z,26.70
2019-02-28T01:19:46.356Z,26.20
2019-02-28T01:20:49.956Z,27.60
2019-02-28T01:21:46.315Z,27.30
2019-02-28T01:22:46.300Z,27.60
2019-02-28T01:23:46.270Z,27.80
2019-02-28T01:24:46.243Z,28.20
2019-02-28T01:25:46.220Z,29.20
2019-02-28T01:26:46.705Z,29.30
2019-02-28T01:27:46.188Z,29.10
2019-02-28T01:28:46.153Z,28.20
2019-02-28T01:29:46.129Z,29.00
2019-02-28T01:30:46.107Z,28.40
2019-02-28T01:31:46.085Z,28.60
2019-02-28T01:32:49.971Z,28.70
2019-02-28T01:33:46.042Z,28.00
2019-02-28T01:34:46.019Z,28.20
2019-02-28T01:35:45.995Z,28.50
2019-02-28T01:36:48.708Z,29.20
2019-02-28T01:37:45.950Z,30.10
2019-02-28T01:38:45.934Z,29.90
2019-02-28T01:39:45.969Z,29.50
2019-02-28T01:40:45.887Z,30.80
2019-02-28T01:41:45.942Z,30.10
2019-02-28T01:42:45.837Z,30.70
2019-02-28T01:43:45.814Z,30.30
2019-02-28T01:44:45.791Z,30.20
2019-02-28T01:45:45.768Z,29.90
2019-02-28T01:46:48.541Z,30.20
2019-02-28T01:47:45.726Z,29.80
2019-02-28T01:48:45.702Z,32.00
2019-02-28T01:49:45.678Z,30.10
2019-02-28T01:50:45.655Z,30.40
2019-02-28T01:51:45.633Z,31.80
2019-02-28T01:52:46.198Z,31.50
2019-02-28T01:53:45.586Z,31.60
2019-02-28T01:54:45.564Z,31.30
2019-02-28T01:55:45.541Z,32.20
2019-02-28T01:56:45.525Z,30.30
2019-02-28T01:57:45.496Z,32.50
2019-02-28T01:58:47.604Z,31.80
2019-02-28T01:59:45.460Z,32.80
2019-02-28T02:00:45.479Z,32.60
2019-02-28T02:01:45.406Z,32.80
2019-02-28T02:02:45.382Z,31.90
2019-02-28T02:03:45.362Z,32.00
2019-02-28T02:04:45.774Z,33.00
2019-02-28T02:05:45.320Z,33.10
2019-02-28T02:06:45.293Z,33.40
2019-02-28T02:07:45.271Z,33.20
2019-02-28T02:08:45.248Z,32.60
2019-02-28T02:09:46.150Z,32.80
2019-02-28T02:10:45.203Z,33.50
2019-02-28T02:11:45.180Z,34.10
2019-02-28T02:12:45.165Z,34.30
2019-02-28T02:13:45.134Z,33.40
2019-02-28T02:14:45.804Z,33.10
2019-02-28T02:15:45.097Z,35.00
2019-02-28T02:16:45.082Z,33.60
2019-02-28T02:17:45.053Z,34.10
2019-02-28T02:18:45.018Z,33.30
2019-02-28T02:19:44.998Z,34.10
2019-02-28T02:20:44.974Z,34.30
2019-02-28T02:21:44.952Z,32.60
2019-02-28T02:22:45.435Z,34.30
2019-02-28T02:23:44.910Z,35.60
2019-02-28T02:24:44.883Z,33.40
2019-02-28T02:25:44.858Z,35.20
2019-02-28T02:26:45.140Z,34.20
2019-02-28T02:27:44.819Z,34.50
2019-02-28T02:28:44.792Z,35.50
2019-02-28T02:29:44.767Z,34.80
2019-02-28T02:30:50.523Z,34.70
2019-02-28T02:31:44.722Z,33.50
2019-02-28T02:32:44.701Z,34.70
2019-02-28T02:33:51.138Z,35.10
2019-02-28T02:34:44.661Z,34.90
2019-02-28T02:35:44.648Z,35.10
2019-02-28T02:36:44.613Z,36.20
2019-02-28T02:37:44.585Z,35.50
2019-02-28T02:38:44.561Z,35.80
2019-02-28T02:39:44.540Z,35.90
2019-02-28T02:40:44.517Z,36.50
2019-02-28T02:41:44.494Z,36.50
2019-02-28T02:42:48.637Z,36.70
2019-02-28T02:43:44.450Z,35.60
2019-02-28T02:44:44.426Z,36.30
2019-02-28T02:45:44.407Z,36.90
2019-02-28T02:46:44.387Z,36.60
2019-02-28T02:47:44.365Z,37.10
2019-02-28T02:48:44.334Z,37.20
2019-02-28T02:49:44.320Z,38.70
2019-02-28T02:50:44.290Z,36.70
2019-02-28T02:51:49.047Z,38.90
2019-02-28T02:52:44.242Z,37.30
2019-02-28T02:53:44.219Z,37.20
2019-02-28T02:54:44.195Z,37.30
2019-02-28T02:55:44.173Z,37.80
2019-02-28T02:56:44.151Z,38.00
2019-02-28T02:57:50.403Z,38.70
2019-02-28T02:58:44.158Z,38.30
2019-02-28T02:59:44.095Z,37.70
2019-02-28T03:00:49.759Z,37.20
2019-02-28T03:01:44.041Z,39.00
2019-02-28T03:02:44.041Z,38.10
2019-02-28T03:03:44.554Z,38.30
2019-02-28T03:04:43.976Z,38.80
2019-02-28T03:05:43.943Z,39.10
2019-02-28T03:06:45.874Z,38.90
2019-02-28T03:07:43.896Z,37.60
2019-02-28T03:08:43.876Z,37.30
2019-02-28T03:09:44.790Z,37.80
2019-02-28T03:10:43.837Z,39.00
2019-02-28T03:11:43.811Z,38.90
2019-02-28T03:12:43.791Z,39.50
2019-02-28T03:13:44.203Z,39.10
2019-02-28T03:14:43.735Z,40.50
2019-02-28T03:15:43.717Z,40.00
2019-02-28T03:16:43.691Z,37.60
2019-02-28T03:17:47.312Z,39.50
2019-02-28T03:18:43.644Z,40.80
2019-02-28T03:19:43.625Z,39.70
2019-02-28T03:20:43.606Z,39.50
2019-02-28T03:21:47.764Z,41.40
2019-02-28T03:22:43.550Z,39.70
2019-02-28T03:23:43.526Z,40.00
2019-02-28T03:24:50.711Z,38.90
2019-02-28T03:25:43.480Z,38.80
2019-02-28T03:26:43.493Z,40.10
2019-02-28T03:27:43.436Z,39.00
2019-02-28T03:28:43.414Z,38.70
2019-02-28T03:29:43.739Z,39.30
2019-02-28T03:30:43.365Z,40.80
2019-02-28T03:31:54.979Z,39.60
2019-02-28T03:32:43.420Z,40.20
2019-02-28T03:33:43.295Z,39.40
2019-02-28T03:34:54.840Z,39.60
2019-02-28T03:35:44.262Z,41.40
2019-02-28T03:36:43.227Z,41.10
2019-02-28T03:37:43.209Z,41.50
2019-02-28T03:38:48.568Z,40.70
2019-02-28T03:39:43.155Z,40.80
2019-02-28T03:40:43.141Z,40.20
2019-02-28T03:41:43.112Z,40.40
2019-02-28T03:42:43.086Z,38.90
2019-02-28T03:43:44.209Z,40.20
2019-02-28T03:44:43.048Z,39.90
2019-02-28T03:45:43.026Z,39.40
2019-02-28T03:46:46.294Z,41.00
2019-02-28T03:47:42.973Z,41.10
2019-02-28T03:48:42.948Z,40.90
2019-02-28T03:49:48.693Z,40.80
2019-02-28T03:50:42.901Z,40.20
2019-02-28T03:51:42.877Z,40.80
2019-02-28T03:52:44.784Z,39.50
2019-02-28T03:53:42.831Z,41.50
2019-02-28T03:54:42.806Z,41.40
2019-02-28T03:55:42.783Z,40.40
2019-02-28T03:56:42.761Z,39.70
2019-02-28T03:57:42.749Z,41.80
2019-02-28T03:58:43.129Z,40.40
2019-02-28T03:59:42.692Z,41.20
2019-02-28T04:00:42.667Z,42.00
2019-02-28T04:01:45.656Z,40.40
2019-02-28T04:02:42.624Z,41.50
2019-02-28T04:03:42.596Z,41.60
2019-02-28T04:04:48.449Z,41.60
2019-02-28T04:05:42.559Z,42.20
2019-02-28T04:06:42.526Z,41.00
2019-02-28T04:07:42.503Z,41.70
2019-02-28T04:08:42.482Z,42.10
2019-02-28T04:09:44.178Z,41.00
2019-02-28T04:10:42.443Z,39.50
2019-02-28T04:11:42.410Z,40.70
2019-02-28T04:12:45.655Z,40.30
2019-02-28T04:13:42.360Z,41.50
2019-02-28T04:14:42.337Z,41.00
2019-02-28T04:15:47.652Z,41.00
2019-02-28T04:16:42.295Z,40.10
2019-02-28T04:17:42.271Z,40.90
2019-02-28T04:18:46.094Z,42.10
2019-02-28T04:19:42.219Z,40.20
2019-02-28T04:20:42.217Z,41.50
2019-02-28T04:21:46.252Z,42.10
2019-02-28T04:22:42.155Z,40.80
2019-02-28T04:23:42.154Z,40.00
2019-02-28T04:24:46.209Z,41.30
2019-02-28T04:25:42.084Z,40.60
2019-02-28T04:26:42.061Z,40.50
2019-02-28T04:27:42.112Z,40.60
2019-02-28T04:28:42.007Z,39.90
2019-02-28T04:29:41.982Z,40.70
2019-02-28T04:30:43.717Z,41.00
2019-02-28T04:31:41.940Z,41.40
2019-02-28T04:32:41.923Z,42.50
2019-02-28T04:33:41.887Z,41.30
2019-02-28T04:34:41.864Z,43.10
2019-02-28T04:35:41.844Z,42.50
2019-02-28T04:36:41.819Z,40.80
2019-02-28T04:37:46.839Z,42.40
2019-02-28T04:38:41.771Z,41.20
2019-02-28T04:39:41.747Z,43.10
2019-02-28T04:40:41.726Z,39.80
2019-02-28T04:41:41.697Z,41.90
2019-02-28T04:42:41.674Z,41.20
2019-02-28T04:43:44.420Z,40.20
2019-02-28T04:44:41.626Z,41.50
2019-02-28T04:45:41.603Z,43.30
2019-02-28T04:46:41.591Z,41.70
2019-02-28T04:47:41.807Z,41.20
2019-02-28T04:48:41.534Z,40.50
2019-02-28T04:49:41.509Z,42.30
2019-02-28T04:50:41.486Z,41.40
2019-02-28T04:51:41.462Z,42.30
2019-02-28T04:52:46.527Z,42.00
2019-02-28T04:53:41.412Z,41.80
2019-02-28T04:54:41.392Z,42.30
2019-02-28T04:55:41.372Z,42.00
2019-02-28T04:56:42.372Z,42.30
2019-02-28T04:57:41.317Z,42.10
2019-02-28T04:58:41.296Z,42.20
2019-02-28T04:59:41.283Z,41.80
2019-02-28T05:00:41.264Z,40.70
2019-02-28T05:01:41.223Z,42.30
2019-02-28T05:02:41.212Z,42.10
2019-02-28T05:03:41.176Z,42.40
2019-02-28T05:04:41.161Z,41.60
2019-02-28T05:05:41.136Z,42.30
2019-02-28T05:06:41.104Z,43.20
2019-02-28T05:07:41.087Z,42.20
2019-02-28T05:08:41.098Z,42.10
2019-02-28T05:09:41.044Z,39.70
2019-02-28T05:10:41.134Z,41.00
2019-02-28T05:11:40.986Z,41.60
2019-02-28T05:12:41.232Z,43.20
2019-02-28T05:13:41.233Z,43.00
2019-02-28T05:14:40.913Z,42.60
2019-02-28T05:15:41.171Z,41.00
2019-02-28T05:16:46.883Z,41.60
2019-02-28T05:17:40.841Z,41.20
2019-02-28T05:18:40.825Z,42.60
2019-02-28T05:19:40.801Z,41.80
2019-02-28T05:20:45.152Z,42.10
2019-02-28T05:21:40.747Z,42.60
2019-02-28T05:22:40.728Z,42.50
2019-02-28T05:23:40.698Z,42.00
2019-02-28T05:24:42.561Z,43.70
2019-02-28T05:25:40.651Z,42.80
2019-02-28T05:26:40.625Z,43.10
2019-02-28T05:27:40.603Z,43.10
2019-02-28T05:28:41.388Z,42.00
2019-02-28T05:29:43.863Z,41.40
2019-02-28T05:30:41.536Z,44.60
2019-02-28T05:31:40.507Z,43.20
2019-02-28T05:32:40.483Z,43.30
2019-02-28T05:33:41.925Z,44.70
2019-02-28T05:34:40.452Z,43.60
2019-02-28T05:35:40.428Z,42.20
2019-02-28T05:36:40.389Z,42.60
2019-02-28T05:37:46.945Z,41.80
2019-02-28T05:38:40.356Z,44.70
2019-02-28T05:39:40.316Z,44.30
2019-02-28T05:40:41.313Z,44.10
2019-02-28T05:41:40.266Z,44.80
2019-02-28T05:42:40.243Z,43.40
2019-02-28T05:43:40.227Z,43.40
2019-02-28T05:44:40.888Z,44.80
2019-02-28T05:45:40.179Z,42.90
2019-02-28T05:46:40.146Z,43.30
2019-02-28T05:47:46.167Z,43.10
2019-02-28T05:48:40.104Z,43.40
2019-02-28T05:49:41.081Z,43.30
2019-02-28T05:50:40.051Z,44.50
2019-02-28T05:51:40.045Z,44.80
2019-02-28T05:52:40.006Z,45.00
2019-02-28T05:53:41.378Z,45.90
2019-02-28T05:54:39.955Z,45.70
2019-02-28T05:55:39.934Z,44.40
2019-02-28T05:56:39.914Z,44.80
2019-02-28T05:57:43.425Z,45.50
2019-02-28T05:58:39.859Z,44.30
2019-02-28T05:59:39.843Z,45.00
2019-02-28T06:00:39.810Z,45.50
2019-02-28T06:01:39.787Z,45.80
2019-02-28T06:02:39.761Z,44.90
2019-02-28T06:03:39.746Z,44.60
2019-02-28T06:04:39.719Z,45.70
2019-02-28T06:05:39.697Z,45.50
2019-02-28T06:06:39.665Z,45.00
2019-02-28T06:07:39.639Z,46.00
2019-02-28T06:08:40.028Z,45.80
2019-02-28T06:09:39.601Z,45.90
2019-02-28T06:10:39.568Z,45.20
2019-02-28T06:11:39.544Z,45.20
2019-02-28T06:12:40.511Z,44.90
2019-02-28T06:13:39.498Z,44.20
2019-02-28T06:14:39.473Z,45.90
2019-02-28T06:15:39.459Z,45.50
2019-02-28T06:16:39.431Z,46.50
2019-02-28T06:17:39.399Z,43.80
2019-02-28T06:18:39.383Z,45.60
2019-02-28T06:19:40.261Z,49.90
2019-02-28T06:20:39.327Z,45.10
2019-02-28T06:21:39.302Z,46.30
2019-02-28T06:22:39.278Z,44.70
2019-02-28T06:23:40.718Z,47.10
2019-02-28T06:24:39.236Z,46.10
2019-02-28T06:25:39.237Z,47.40
2019-02-28T06:26:39.185Z,44.90
2019-02-28T06:27:41.868Z,46.80
2019-02-28T06:28:39.137Z,46.30
2019-02-28T06:29:39.111Z,47.00
2019-02-28T06:30:41.413Z,46.80
2019-02-28T06:31:39.062Z,47.20
2019-02-28T06:32:39.042Z,47.40
2019-02-28T06:33:39.011Z,46.30
2019-02-28T06:34:39.396Z,46.50
2019-02-28T06:35:38.965Z,47.10
2019-02-28T06:36:38.939Z,46.60
2019-02-28T06:37:39.220Z,46.90
2019-02-28T06:38:38.897Z,47.30
2019-02-28T06:39:38.868Z,47.90
2019-02-28T06:40:38.845Z,45.70
2019-02-28T06:41:39.923Z,49.00
2019-02-28T06:42:38.795Z,47.20
2019-02-28T06:43:38.770Z,47.90
2019-02-28T06:44:38.747Z,45.60
2019-02-28T06:45:38.725Z,47.10
2019-02-28T06:46:39.819Z,47.90
2019-02-28T06:47:39.110Z,46.90
2019-02-28T06:48:38.656Z,45.90
2019-02-28T06:49:41.830Z,45.90
2019-02-28T06:50:38.602Z,46.20
2019-02-28T06:51:38.593Z,47.30
2019-02-28T06:52:38.553Z,48.10
2019-02-28T06:53:38.533Z,46.90
2019-02-28T06:54:39.933Z,45.30
2019-02-28T06:55:38.481Z,47.00
2019-02-28T06:56:38.455Z,47.50
2019-02-28T06:57:38.432Z,46.70
2019-02-28T06:58:38.408Z,46.00
2019-02-28T06:59:39.134Z,46.10
2019-02-28T07:00:38.366Z,47.40
2019-02-28T07:01:38.335Z,45.70
2019-02-28T07:02:38.359Z,46.30
2019-02-28T07:03:38.788Z,46.90
2019-02-28T07:04:38.269Z,47.60
2019-02-28T07:05:38.239Z,48.50
2019-02-28T07:06:38.225Z,46.90
2019-02-28T07:07:38.193Z,47.80
2019-02-28T07:08:38.168Z,48.00
2019-02-28T07:09:38.145Z,47.40
2019-02-28T07:10:38.120Z,49.20
2019-02-28T07:11:38.116Z,49.90
2019-02-28T07:12:38.072Z,48.50
2019-02-28T07:13:39.974Z,47.40
2019-02-28T07:14:38.024Z,49.50
2019-02-28T07:15:38.016Z,51.00
2019-02-28T07:16:38.117Z,48.40
2019-02-28T07:17:38.053Z,49.50
2019-02-28T07:18:37.932Z,47.80
2019-02-28T07:19:37.908Z,49.10
2019-02-28T07:20:37.883Z,46.80
2019-02-28T07:21:42.907Z,49.30
2019-02-28T07:22:39.967Z,47.90
2019-02-28T07:23:37.813Z,48.70
2019-02-28T07:24:38.240Z,48.40
2019-02-28T07:25:37.765Z,48.20
2019-02-28T07:26:37.743Z,48.40
2019-02-28T07:27:37.722Z,48.20
2019-02-28T07:28:37.850Z,48.00
2019-02-28T07:29:37.670Z,47.50
2019-02-28T07:30:37.663Z,48.40
2019-02-28T07:31:37.624Z,48.40
2019-02-28T07:32:37.599Z,47.90
2019-02-28T07:33:37.622Z,47.70
2019-02-28T07:34:37.556Z,47.40
2019-02-28T07:35:37.530Z,48.30
2019-02-28T07:36:37.507Z,46.90
2019-02-28T07:37:37.496Z,48.00
2019-02-28T07:38:37.465Z,48.10
2019-02-28T07:39:40.460Z,49.50
2019-02-28T07:40:37.412Z,47.80
2019-02-28T07:41:37.387Z,49.50
2019-02-28T07:42:37.668Z,48.50
2019-02-28T07:43:37.827Z,48.00
2019-02-28T07:44:38.101Z,49.40
2019-02-28T07:45:37.296Z,48.60
2019-02-28T07:46:38.792Z,48.70
2019-02-28T07:47:37.260Z,49.00
2019-02-28T07:48:37.235Z,50.70
2019-02-28T07:49:37.203Z,48.60
2019-02-28T07:50:37.231Z,48.10
2019-02-28T07:51:37.156Z,51.20
2019-02-28T07:52:37.139Z,48.40
2019-02-28T07:53:37.116Z,48.10
2019-02-28T07:54:37.086Z,49.30
2019-02-28T07:55:37.066Z,49.30
2019-02-28T07:56:42.479Z,48.40
2019-02-28T07:57:37.018Z,49.00
2019-02-28T07:58:36.997Z,51.30
2019-02-28T07:59:40.937Z,50.50
2019-02-28T08:00:36.957Z,48.60
2019-02-28T08:01:36.931Z,49.20
2019-02-28T08:02:39.275Z,49.50
2019-02-28T08:03:36.895Z,48.50
2019-02-28T08:04:36.859Z,48.00
2019-02-28T08:05:36.854Z,48.90
2019-02-28T08:06:39.401Z,49.90
2019-02-28T08:07:36.795Z,49.40
2019-02-28T08:08:36.769Z,49.30
2019-02-28T08:09:40.678Z,48.50
2019-02-28T08:10:36.722Z,50.20
2019-02-28T08:11:36.731Z,49.60
2019-02-28T08:12:36.682Z,49.50
2019-02-28T08:13:37.854Z,49.50
2019-02-28T08:14:36.635Z,48.40
2019-02-28T08:15:36.610Z,48.00
2019-02-28T08:16:36.586Z,47.90
2019-02-28T08:17:36.574Z,47.10
2019-02-28T08:18:36.551Z,47.50
2019-02-28T08:19:36.522Z,48.30
2019-02-28T08:20:36.497Z,49.70
2019-02-28T08:21:36.524Z,48.90
2019-02-28T08:22:36.453Z,47.00
2019-02-28T08:23:37.584Z,49.30
2019-02-28T08:24:36.693Z,48.80
2019-02-28T08:25:39.573Z,48.50
2019-02-28T08:26:36.374Z,49.50
2019-02-28T08:27:36.350Z,47.80
2019-02-28T08:28:36.976Z,48.00
2019-02-28T08:29:36.300Z,49.40
2019-02-28T08:30:36.275Z,48.70
2019-02-28T08:31:36.255Z,49.90
2019-02-28T08:32:36.234Z,49.00
2019-02-28T08:33:36.226Z,50.00
2019-02-28T08:34:36.189Z,49.50
2019-02-28T08:35:36.166Z,49.30
2019-02-28T08:36:36.145Z,50.20
2019-02-28T08:37:36.123Z,48.80
2019-02-28T08:38:36.105Z,49.60
2019-02-28T08:39:36.080Z,47.50
2019-02-28T08:40:36.060Z,49.30
2019-02-28T08:41:36.035Z,48.20
2019-02-28T08:42:39.642Z,48.80
2019-02-28T08:43:35.998Z,49.20
2019-02-28T08:44:35.976Z,49.60
2019-02-28T08:45:35.950Z,49.80
2019-02-28T08:46:35.934Z,49.10
2019-02-28T08:47:35.907Z,49.10
2019-02-28T08:48:35.894Z,48.70
2019-02-28T08:49:41.899Z,48.10
2019-02-28T08:50:35.845Z,48.70
2019-02-28T08:51:35.823Z,48.90
2019-02-28T08:52:37.591Z,48.90
2019-02-28T08:53:35.780Z,49.20
2019-02-28T08:54:35.767Z,47.90
2019-02-28T08:55:38.463Z,48.30
2019-02-28T08:56:35.719Z,49.10
2019-02-28T08:57:35.700Z,48.40
2019-02-28T08:58:37.646Z,48.20
2019-02-28T08:59:35.671Z,49.10
2019-02-28T09:00:37.634Z,48.70
2019-02-28T09:01:40.031Z,48.00
2019-02-28T09:02:35.607Z,49.60
2019-02-28T09:03:35.591Z,48.10
2019-02-28T09:04:41.204Z,48.40
2019-02-28T09:05:35.536Z,47.60
2019-02-28T09:06:37.869Z,49.00
2019-02-28T09:07:35.497Z,47.50
2019-02-28T09:08:35.475Z,48.00
2019-02-28T09:09:35.456Z,46.30
2019-02-28T09:10:37.420Z,48.00
2019-02-28T09:11:35.626Z,48.60
2019-02-28T09:12:35.398Z,48.40
2019-02-28T09:13:35.385Z,48.80
2019-02-28T09:14:35.358Z,47.80
2019-02-28T09:15:35.340Z,48.60
2019-02-28T09:16:36.744Z,48.40
2019-02-28T09:17:35.309Z,48.10
2019-02-28T09:18:35.291Z,49.60
2019-02-28T09:19:36.037Z,48.20
2019-02-28T09:20:35.245Z,49.30
2019-02-28T09:21:35.234Z,49.00
2019-02-28T09:22:35.207Z,48.90
2019-02-28T09:23:37.574Z,48.50
2019-02-28T09:24:35.176Z,47.00
2019-02-28T09:25:35.150Z,47.90
2019-02-28T09:26:35.132Z,48.50
2019-02-28T09:27:35.291Z,48.80
2019-02-28T09:28:35.095Z,47.20
2019-02-28T09:29:35.077Z,48.80
2019-02-28T09:30:35.059Z,48.00
2019-02-28T09:31:38.634Z,49.50
2019-02-28T09:32:35.022Z,48.70
2019-02-28T09:33:35.004Z,48.70
2019-02-28T09:34:34.985Z,47.30
2019-02-28T09:35:34.968Z,49.30
2019-02-28T09:36:34.958Z,50.20
2019-02-28T09:37:34.947Z,48.60
2019-02-28T09:38:34.915Z,49.20
2019-02-28T09:39:34.895Z,49.10
2019-02-28T09:40:34.881Z,49.50
2019-02-28T09:41:36.438Z,49.00
2019-02-28T09:42:34.846Z,48.50
2019-02-28T09:43:34.827Z,49.30
2019-02-28T09:44:34.801Z,49.30
2019-02-28T09:45:34.792Z,50.90
2019-02-28T09:46:34.992Z,49.60
2019-02-28T09:47:34.751Z,48.60
2019-02-28T09:48:37.270Z,49.60
2019-02-28T09:49:34.710Z,48.80
2019-02-28T09:50:34.692Z,48.70
2019-02-28T09:51:34.692Z,50.30
2019-02-28T09:52:34.658Z,50.40
2019-02-28T09:53:34.639Z,49.50
2019-02-28T09:54:34.631Z,48.80
2019-02-28T09:55:35.572Z,48.90
2019-02-28T09:56:34.593Z,49.80
2019-02-28T09:57:34.572Z,50.40
2019-02-28T09:58:34.554Z,50.90
2019-02-28T09:59:37.821Z,50.60
2019-02-28T10:00:34.522Z,50.20
2019-02-28T10:01:34.505Z,50.70
2019-02-28T10:02:34.487Z,50.60
2019-02-28T10:03:34.713Z,50.90
2019-02-28T10:04:34.450Z,49.20
2019-02-28T10:05:34.434Z,52.10
2019-02-28T10:06:34.416Z,50.00
2019-02-28T10:07:34.407Z,50.40
2019-02-28T10:08:36.619Z,50.20
2019-02-28T10:09:34.372Z,50.40
2019-02-28T10:10:34.351Z,52.30
2019-02-28T10:11:34.329Z,49.90
2019-02-28T10:12:34.316Z,48.90
2019-02-28T10:13:34.296Z,50.50
2019-02-28T10:14:34.674Z,49.90
2019-02-28T10:15:34.262Z,50.30
2019-02-28T10:16:34.254Z,51.10
2019-02-28T10:17:34.237Z,51.30
2019-02-28T10:18:35.471Z,52.60
2019-02-28T10:19:43.057Z,50.00
2019-02-28T10:20:34.181Z,51.40
2019-02-28T10:21:36.497Z,51.00
2019-02-28T10:22:34.149Z,51.50
2019-02-28T10:23:34.135Z,52.10
2019-02-28T10:24:34.118Z,52.10
2019-02-28T10:25:34.104Z,53.10
2019-02-28T10:26:34.095Z,51.90
2019-02-28T10:27:34.072Z,53.90
2019-02-28T10:28:34.058Z,53.90
2019-02-28T10:29:34.043Z,54.90
2019-02-28T10:30:34.030Z,52.50
2019-02-28T10:31:37.347Z,53.90
2019-02-28T10:32:33.999Z,54.20
2019-02-28T10:33:33.982Z,53.90
2019-02-28T10:34:35.373Z,53.40
2019-02-28T10:35:36.713Z,54.80
2019-02-28T10:36:33.944Z,54.40
2019-02-28T10:37:35.601Z,54.30
2019-02-28T10:38:33.998Z,53.90
2019-02-28T10:39:33.916Z,54.80
2019-02-28T10:40:33.886Z,56.70
2019-02-28T10:41:33.867Z,54.00
2019-02-28T10:42:33.854Z,54.60
2019-02-28T10:43:33.842Z,54.70
2019-02-28T10:44:33.828Z,52.90
2019-02-28T10:45:33.812Z,54.20
2019-02-28T10:46:33.799Z,53.00
2019-02-28T10:47:33.795Z,53.70
2019-02-28T10:48:35.264Z,55.10
2019-02-28T10:49:37.588Z,55.70
2019-02-28T10:50:33.764Z,54.20
2019-02-28T10:51:33.730Z,53.10
2019-02-28T10:52:33.717Z,55.90
2019-02-28T10:53:36.363Z,53.00
2019-02-28T10:54:33.686Z,54.50
2019-02-28T10:55:33.697Z,55.70
2019-02-28T10:56:33.658Z,56.20
2019-02-28T10:57:33.644Z,54.20
2019-02-28T10:58:33.628Z,54.60
2019-02-28T10:59:33.614Z,55.40
2019-02-28T11:00:33.747Z,54.60
2019-02-28T11:01:33.593Z,55.20
2019-02-28T11:02:33.573Z,56.10
2019-02-28T11:03:33.557Z,54.70
2019-02-28T11:04:33.558Z,54.90
2019-02-28T11:05:33.528Z,55.40
2019-02-28T11:06:33.513Z,55.00
2019-02-28T11:07:34.206Z,55.40
2019-02-28T11:08:33.488Z,55.00
2019-02-28T11:09:33.476Z,55.10
2019-02-28T11:10:35.472Z,54.50
2019-02-28T11:11:33.440Z,54.00
2019-02-28T11:12:33.431Z,55.30
2019-02-28T11:13:33.412Z,53.50
2019-02-28T11:14:35.523Z,54.90
2019-02-28T11:15:33.382Z,54.60
2019-02-28T11:16:33.373Z,54.50
2019-02-28T11:17:34.229Z,55.50
2019-02-28T11:18:33.341Z,55.20
2019-02-28T11:19:33.324Z,54.00
2019-02-28T11:20:33.347Z,54.40
2019-02-28T11:21:33.296Z,53.80
2019-02-28T11:22:33.283Z,54.70
2019-02-28T11:23:33.272Z,56.50
2019-02-28T11:24:33.259Z,54.60
2019-02-28T11:25:35.520Z,55.70
2019-02-28T11:26:33.224Z,55.10
2019-02-28T11:27:33.209Z,55.20
2019-02-28T11:28:33.204Z,55.30
2019-02-28T11:29:35.087Z,56.20
2019-02-28T11:30:33.169Z,56.30
2019-02-28T11:31:33.157Z,53.80
2019-02-28T11:32:33.153Z,55.00
2019-02-28T11:33:33.125Z,55.40
2019-02-28T11:34:33.111Z,53.60
2019-02-28T11:35:33.096Z,55.10
2019-02-28T11:36:34.179Z,52.70
2019-02-28T11:37:33.067Z,53.80
2019-02-28T11:38:33.054Z,53.50
2019-02-28T11:39:33.802Z,52.60
2019-02-28T11:40:33.033Z,55.20
2019-02-28T11:41:33.009Z,54.90
2019-02-28T11:42:32.998Z,55.00
2019-02-28T11:43:37.506Z,55.20
2019-02-28T11:44:32.967Z,52.60
2019-02-28T11:45:32.955Z,54.30
2019-02-28T11:46:35.616Z,53.40
2019-02-28T11:47:32.937Z,55.90
2019-02-28T11:48:32.912Z,54.60
2019-02-28T11:49:32.901Z,54.50
2019-02-28T11:50:32.880Z,55.30
2019-02-28T11:51:32.873Z,54.20
2019-02-28T11:52:32.851Z,53.60
2019-02-28T11:53:32.867Z,53.20
2019-02-28T11:54:32.830Z,48.60
2019-02-28T11:55:32.807Z,53.20
2019-02-28T11:56:32.794Z,55.70
2019-02-28T11:57:32.785Z,54.00
2019-02-28T11:58:32.763Z,55.60
2019-02-28T11:59:32.749Z,55.80
2019-02-28T12:00:35.681Z,52.60
2019-02-28T12:01:32.734Z,54.20
2019-02-28T12:02:32.702Z,53.90
2019-02-28T12:03:35.528Z,55.10
2019-02-28T12:04:32.686Z,54.90
2019-02-28T12:05:32.668Z,55.10
2019-02-28T12:06:32.650Z,53.40
2019-02-28T12:07:34.867Z,53.50
2019-02-28T12:08:32.611Z,54.20
2019-02-28T12:09:32.610Z,53.00
2019-02-28T12:10:32.580Z,54.00
2019-02-28T12:11:33.532Z,54.70
2019-02-28T12:12:32.546Z,56.20
2019-02-28T12:13:32.532Z,54.40
2019-02-28T12:14:32.514Z,54.80
2019-02-28T12:15:32.506Z,55.40
2019-02-28T12:16:32.482Z,55.90
2019-02-28T12:17:32.466Z,55.70
2019-02-28T12:18:32.454Z,54.10
2019-02-28T12:19:32.434Z,53.50
2019-02-28T12:20:32.419Z,55.30
2019-02-28T12:21:35.263Z,55.70
2019-02-28T12:22:32.385Z,55.20
2019-02-28T12:23:32.432Z,54.20
2019-02-28T12:24:33.172Z,54.30
2019-02-28T12:25:32.361Z,56.90
2019-02-28T12:26:32.328Z,55.90
2019-02-28T12:27:32.308Z,56.30
2019-02-28T12:28:35.259Z,55.80
2019-02-28T12:29:32.273Z,54.20
2019-02-28T12:30:32.269Z,55.40
2019-02-28T12:31:35.548Z,53.80
2019-02-28T12:32:32.226Z,54.50
2019-02-28T12:33:32.208Z,53.90
2019-02-28T12:34:32.191Z,54.40
2019-02-28T12:35:37.554Z,53.80
2019-02-28T12:36:32.162Z,51.50
2019-02-28T12:37:32.144Z,54.90
2019-02-28T12:38:32.126Z,56.00
2019-02-28T12:39:33.385Z,54.60
2019-02-28T12:40:32.097Z,55.70
2019-02-28T12:41:32.079Z,55.60
2019-02-28T12:42:34.630Z,54.30
2019-02-28T12:43:32.053Z,49.10
2019-02-28T12:44:32.027Z,50.00
2019-02-28T12:45:32.011Z,52.40
2019-02-28T12:46:32.715Z,52.10
2019-02-28T12:47:31.979Z,51.60
2019-02-28T12:48:31.962Z,52.60
2019-02-28T12:49:31.954Z,52.60
2019-02-28T12:50:31.932Z,52.80
2019-02-28T12:51:31.924Z,52.20
2019-02-28T12:52:31.903Z,54.10